createdAt,value
2019-05-16T00:01:25.892Z,14.80
2019-05-16T00:03:52.524Z,14.80
2019-05-16T00:06:19.378Z,14.80
2019-05-16T00:08:48.005Z,14.80
2019-05-16T00:11:14.750Z,14.90
2019-05-16T00:13:41.802Z,14.80
2019-05-16T00:16:09.980Z,14.80
2019-05-16T00:18:38.674Z,14.80
2019-05-16T00:21:05.268Z,14.60
2019-05-16T00:23:31.892Z,14.60
2019-05-16T00:25:58.756Z,14.50
2019-05-16T00:28:25.543Z,14.40
2019-05-16T00:30:52.281Z,14.30
2019-05-16T00:33:18.886Z,14.40
2019-05-16T00:35:45.518Z,14.50
2019-05-16T00:38:12.126Z,14.50
2019-05-16T00:40:38.886Z,14.50
2019-05-16T00:43:07.882Z,14.40
2019-05-16T00:45:34.191Z,14.40
2019-05-16T00:48:00.788Z,14.30
2019-05-16T00:50:28.778Z,14.40
2019-05-16T00:52:55.974Z,14.20
2019-05-16T00:55:23.025Z,14.20
2019-05-16T00:57:50.682Z,14.30
2019-05-16T01:00:21.140Z,14.30
2019-05-16T01:02:48.561Z,14.40
2019-05-16T01:05:15.401Z,14.30
2019-05-16T01:07:42.153Z,14.40
2019-05-16T01:10:09.343Z,14.20
2019-05-16T01:12:36.306Z,13.90
2019-05-16T01:15:07.613Z,14.00
2019-05-16T01:17:34.197Z,14.00
2019-05-16T01:20:00.833Z,14.00
2019-05-16T01:22:29.020Z,13.80
2019-05-16T01:24:55.695Z,13.70
2019-05-16T01:27:24.622Z,13.80
2019-05-16T01:29:51.500Z,13.80
2019-05-16T01:32:18.974Z,13.90
2019-05-16T01:34:48.197Z,14.00
2019-05-16T01:37:14.375Z,13.80
2019-05-16T01:39:40.994Z,13.80
2019-05-16T01:42:08.078Z,13.80
2019-05-16T01:44:34.966Z,13.80
2019-05-16T01:47:01.692Z,13.70
2019-05-16T01:49:28.348Z,13.70
2019-05-16T01:51:55.065Z,13.50
2019-05-16T01:54:21.792Z,13.50
2019-05-16T01:56:48.507Z,13.50
2019-05-16T01:59:15.215Z,13.30
2019-05-16T02:01:41.833Z,13.30
2019-05-16T02:04:09.107Z,13.20
2019-05-16T02:06:48.366Z,13.30
2019-05-16T02:09:08.487Z,13.20
2019-05-16T02:11:34.546Z,13.10
2019-05-16T02:14:01.276Z,13.10
2019-05-16T02:16:28.077Z,13.10
2019-05-16T02:18:58.736Z,13.20
2019-05-16T02:21:25.032Z,13.10
2019-05-16T02:23:51.746Z,13.10
2019-05-16T02:26:19.115Z,13.00
2019-05-16T02:28:46.164Z,13.10
2019-05-16T02:31:15.288Z,12.90
2019-05-16T02:33:41.246Z,12.90
2019-05-16T02:36:10.694Z,12.80
2019-05-16T02:38:36.470Z,12.70
2019-05-16T02:41:03.636Z,12.80
2019-05-16T02:43:31.244Z,12.60
2019-05-16T02:46:01.313Z,12.60
2019-05-16T02:48:26.893Z,12.50
2019-05-16T02:50:53.483Z,12.50
2019-05-16T02:53:22.419Z,12.40
2019-05-16T02:55:51.530Z,12.40
2019-05-16T02:58:18.077Z,12.50
2019-05-16T03:00:44.733Z,12.50
2019-05-16T03:03:12.260Z,12.50
2019-05-16T03:05:41.903Z,12.40
2019-05-16T03:08:12.029Z,12.20
2019-05-16T03:10:41.232Z,12.10
2019-05-16T03:13:11.217Z,12.10
2019-05-16T03:15:40.475Z,12.10
2019-05-16T03:18:06.261Z,12.20
2019-05-16T03:20:33.299Z,12.30
2019-05-16T03:23:02.209Z,12.40
2019-05-16T03:25:31.084Z,12.40
2019-05-16T03:27:57.268Z,12.30
2019-05-16T03:30:25.398Z,12.30
2019-05-16T03:32:54.608Z,12.40
2019-05-16T03:35:24.778Z,12.40
2019-05-16T03:37:55.631Z,12.40
2019-05-16T03:40:25.889Z,12.30
2019-05-16T03:42:53.085Z,12.20
2019-05-16T03:45:21.231Z,12.20
2019-05-16T03:47:51.114Z,12.20
2019-05-16T03:50:21.566Z,12.20
2019-05-16T03:52:46.751Z,12.30
2019-05-16T03:55:13.815Z,12.30
2019-05-16T03:57:41.685Z,12.20
2019-05-16T04:00:11.825Z,12.20
2019-05-16T04:02:41.914Z,12.30
2019-05-16T04:05:10.906Z,12.10
2019-05-16T04:07:36.140Z,12.10
2019-05-16T04:10:05.738Z,12.10
2019-05-16T04:12:32.395Z,12.10
2019-05-16T04:15:01.723Z,12.10
2019-05-16T04:17:31.433Z,12.10
2019-05-16T04:19:57.235Z,12.00
2019-05-16T04:22:23.865Z,11.90
2019-05-16T04:24:51.227Z,11.90
2019-05-16T04:27:21.194Z,12.00
2019-05-16T04:29:51.416Z,11.90
2019-05-16T04:32:20.530Z,11.90
2019-05-16T04:34:45.825Z,11.90
2019-05-16T04:37:12.621Z,11.90
2019-05-16T04:39:41.482Z,11.80
2019-05-16T04:42:10.812Z,11.60
2019-05-16T04:44:36.436Z,11.60
2019-05-16T04:47:03.158Z,11.60
2019-05-16T04:49:32.009Z,11.70
2019-05-16T04:52:00.613Z,11.80
2019-05-16T04:54:26.926Z,11.90
2019-05-16T04:56:53.794Z,11.80
2019-05-16T04:59:20.931Z,11.90
2019-05-16T05:01:50.825Z,11.90
2019-05-16T05:04:16.471Z,12.00
2019-05-16T05:06:43.162Z,11.90
2019-05-16T05:09:11.712Z,12.00
2019-05-16T05:11:41.070Z,12.10
2019-05-16T05:14:06.806Z,12.00
2019-05-16T05:16:33.538Z,12.00
2019-05-16T05:19:00.514Z,11.90
2019-05-16T05:21:27.360Z,11.90
2019-05-16T05:23:54.351Z,12.10
2019-05-16T05:26:22.988Z,12.30
2019-05-16T05:28:50.819Z,12.20
2019-05-16T05:31:23.860Z,12.30
2019-05-16T05:33:46.289Z,12.50
2019-05-16T05:36:12.970Z,12.50
2019-05-16T05:38:40.323Z,12.50
2019-05-16T05:41:07.040Z,12.50
2019-05-16T05:43:33.864Z,12.50
2019-05-16T05:46:00.994Z,12.50
2019-05-16T05:48:30.578Z,12.40
2019-05-16T05:50:56.552Z,12.50
2019-05-16T05:53:23.200Z,12.60
2019-05-16T05:55:51.002Z,12.60
2019-05-16T05:58:20.586Z,12.80
2019-05-16T06:00:47.753Z,12.90
2019-05-16T06:03:14.481Z,12.90
2019-05-16T06:05:41.430Z,13.00
2019-05-16T06:08:10.529Z,13.20
2019-05-16T06:10:36.710Z,13.30
2019-05-16T06:13:03.346Z,13.40
2019-05-16T06:15:30.690Z,13.50
2019-05-16T06:18:00.057Z,13.80
2019-05-16T06:20:25.968Z,13.90
2019-05-16T06:22:52.694Z,14.00
2019-05-16T06:25:22.680Z,14.10
2019-05-16T06:27:48.184Z,14.40
2019-05-16T06:30:15.052Z,14.60
2019-05-16T06:32:41.954Z,14.70
2019-05-16T06:35:09.775Z,14.70
2019-05-16T06:37:36.848Z,14.90
2019-05-16T06:40:04.752Z,15.00
2019-05-16T06:42:33.394Z,15.20
2019-05-16T06:45:00.875Z,15.50
2019-05-16T06:47:27.829Z,15.60
2019-05-16T06:49:54.718Z,16.00
2019-05-16T06:52:21.601Z,15.90
2019-05-16T06:54:50.376Z,16.10
2019-05-16T06:57:16.803Z,16.30
2019-05-16T06:59:43.556Z,16.60
2019-05-16T07:02:12.248Z,16.70
2019-05-16T07:04:39.824Z,16.90
2019-05-16T07:07:09.493Z,17.10
2019-05-16T07:09:35.092Z,17.40
2019-05-16T07:12:01.804Z,17.70
2019-05-16T07:14:31.213Z,17.90
2019-05-16T07:16:57.290Z,17.90
2019-05-16T07:19:40.624Z,18.00
2019-05-16T07:22:07.142Z,18.00
2019-05-16T07:24:33.996Z,18.10
2019-05-16T07:27:00.826Z,18.50
2019-05-16T07:29:27.634Z,18.10
2019-05-16T07:31:55.091Z,18.10
2019-05-16T07:34:21.826Z,18.50
2019-05-16T07:36:50.247Z,18.50
2019-05-16T07:39:17.126Z,19.00
2019-05-16T07:41:43.664Z,19.20
2019-05-16T07:44:10.980Z,19.30
2019-05-16T07:46:40.817Z,19.70
2019-05-16T07:49:06.546Z,20.00
2019-05-16T07:51:33.177Z,20.30
2019-05-16T07:54:00.004Z,20.10
2019-05-16T07:56:26.643Z,20.40
2019-05-16T07:58:53.516Z,20.50
2019-05-16T08:01:20.223Z,20.80
2019-05-16T08:03:46.974Z,20.80
2019-05-16T08:06:13.838Z,20.80
2019-05-16T08:08:40.560Z,21.00
2019-05-16T08:11:07.325Z,20.90
2019-05-16T08:13:35.140Z,20.70
2019-05-16T08:16:01.849Z,20.40
2019-05-16T08:18:30.195Z,20.30
2019-05-16T08:20:57.081Z,20.30
2019-05-16T08:23:23.746Z,20.60
2019-05-16T08:25:50.987Z,20.40
2019-05-16T08:30:46.522Z,21.10
2019-05-16T08:33:14.347Z,21.10
2019-05-16T08:33:20.808Z,20.80
2019-05-16T08:35:41.467Z,21.20
2019-05-16T08:38:08.304Z,21.50
2019-05-16T08:40:59.646Z,22.00
2019-05-16T08:43:03.637Z,22.20
2019-05-16T08:45:31.561Z,22.40
2019-05-16T08:48:00.226Z,22.50
2019-05-16T08:50:27.273Z,22.50
2019-05-16T08:52:54.209Z,22.70
2019-05-16T08:55:21.756Z,22.80
2019-05-16T08:57:52.907Z,23.20
2019-05-16T09:00:21.519Z,22.60
2019-05-16T09:02:47.033Z,22.00
2019-05-16T09:05:14.163Z,21.70
2019-05-16T09:07:40.823Z,21.40
2019-05-16T09:10:40.142Z,21.60
2019-05-16T09:12:37.224Z,21.60
2019-05-16T09:15:07.381Z,21.90
2019-05-16T09:17:33.475Z,22.10
2019-05-16T09:20:00.203Z,22.80
2019-05-16T09:22:28.147Z,22.70
2019-05-16T09:24:57.731Z,22.40
2019-05-16T09:27:23.720Z,22.20
2019-05-16T09:30:07.048Z,22.50
2019-05-16T09:32:33.187Z,22.70
2019-05-16T09:34:59.953Z,23.10
2019-05-16T09:37:26.895Z,22.60
2019-05-16T09:39:57.041Z,22.10
2019-05-16T09:42:23.406Z,21.70
2019-05-16T09:44:50.604Z,21.90
2019-05-16T09:47:17.774Z,22.30
2019-05-16T09:49:47.329Z,22.00
2019-05-16T09:52:13.377Z,21.80
2019-05-16T09:54:40.041Z,22.10
2019-05-16T09:57:06.859Z,22.40
2019-05-16T09:59:33.742Z,22.50
2019-05-16T10:02:00.360Z,23.00
2019-05-16T10:04:27.042Z,23.10
2019-05-16T10:06:57.020Z,22.70
2019-05-16T10:09:22.368Z,23.10
2019-05-16T10:11:54.118Z,23.50
2019-05-16T10:14:18.372Z,23.10
2019-05-16T10:16:47.734Z,23.00
2019-05-16T10:19:13.839Z,23.50
2019-05-16T10:21:40.721Z,23.60
2019-05-16T10:24:07.460Z,23.50
2019-05-16T10:26:34.197Z,23.80
2019-05-16T10:29:01.037Z,24.00
2019-05-16T10:31:41.327Z,24.30
2019-05-16T10:33:58.543Z,24.50
2019-05-16T10:36:27.909Z,24.40
2019-05-16T10:38:54.073Z,23.90
2019-05-16T10:41:21.028Z,24.20
2019-05-16T10:43:47.747Z,24.40
2019-05-16T10:46:17.444Z,24.60
2019-05-16T10:48:43.066Z,24.40
2019-05-16T10:51:09.890Z,24.60
2019-05-16T10:54:00.902Z,24.20
2019-05-16T10:56:07.603Z,23.70
2019-05-16T10:58:41.630Z,23.80
2019-05-16T11:01:19.576Z,24.10
2019-05-16T11:03:30.811Z,24.30
2019-05-16T11:06:05.464Z,24.40
2019-05-16T11:08:25.977Z,24.70
2019-05-16T11:10:52.784Z,24.50
2019-05-16T11:13:20.640Z,24.80
2019-05-16T11:15:51.394Z,24.70
2019-05-16T11:18:18.018Z,24.40
2019-05-16T11:20:48.960Z,24.40
2019-05-16T11:23:13.926Z,24.10
2019-05-16T11:25:40.753Z,24.40
2019-05-16T11:28:07.593Z,24.30
2019-05-16T11:30:37.279Z,24.80
2019-05-16T11:33:07.380Z,24.70
2019-05-16T11:35:33.411Z,24.40
2019-05-16T11:38:00.104Z,24.50
2019-05-16T11:40:29.726Z,24.40
2019-05-16T11:43:06.628Z,24.00
2019-05-16T11:45:24.267Z,24.10
2019-05-16T11:47:51.016Z,23.90
2019-05-16T11:50:19.102Z,23.80
2019-05-16T11:52:47.705Z,23.80
2019-05-16T11:55:17.391Z,24.10
2019-05-16T11:57:58.002Z,24.00
2019-05-16T12:00:30.157Z,23.70
2019-05-16T12:02:53.563Z,23.20
2019-05-16T12:05:20.374Z,22.90
2019-05-16T12:07:48.319Z,22.90
2019-05-16T12:10:16.375Z,22.90
2019-05-16T12:12:43.274Z,22.80
2019-05-16T12:15:11.589Z,22.90
2019-05-16T12:17:38.246Z,22.50
2019-05-16T12:20:09.109Z,22.90
2019-05-16T12:22:37.726Z,23.10
2019-05-16T12:25:07.903Z,22.70
2019-05-16T12:27:34.273Z,22.50
2019-05-16T12:30:01.063Z,22.70
2019-05-16T12:32:30.852Z,22.80
2019-05-16T12:34:57.480Z,22.80
2019-05-16T12:37:24.120Z,22.60
2019-05-16T12:39:50.955Z,22.30
2019-05-16T12:42:17.872Z,22.60
2019-05-16T12:44:46.733Z,23.00
2019-05-16T12:47:12.913Z,23.30
2019-05-16T12:49:39.578Z,23.40
2019-05-16T12:52:06.900Z,23.50
2019-05-16T12:54:36.712Z,23.40
2019-05-16T12:57:02.374Z,23.20
2019-05-16T12:59:29.066Z,23.40
2019-05-16T13:01:57.656Z,23.40
2019-05-16T13:04:27.678Z,23.50
2019-05-16T13:06:52.844Z,23.30
2019-05-16T13:09:19.481Z,22.80
2019-05-16T13:11:47.250Z,22.10
2019-05-16T13:14:14.027Z,22.00
2019-05-16T13:16:40.913Z,22.20
2019-05-16T13:19:07.670Z,22.50
2019-05-16T13:21:34.316Z,22.80
2019-05-16T13:24:01.031Z,22.70
2019-05-16T13:26:28.874Z,22.70
2019-05-16T13:28:57.777Z,22.60
2019-05-16T13:31:23.949Z,22.20
2019-05-16T13:33:52.542Z,22.10
2019-05-16T13:36:19.173Z,22.00
2019-05-16T13:38:48.134Z,21.60
2019-05-16T13:41:14.521Z,21.50
2019-05-16T13:43:41.231Z,21.70
2019-05-16T13:46:07.882Z,21.40
2019-05-16T13:48:37.419Z,21.30
2019-05-16T13:51:13.874Z,21.40
2019-05-16T13:53:32.032Z,20.90
2019-05-16T13:55:59.082Z,21.10
2019-05-16T13:58:28.063Z,21.10
2019-05-16T14:00:56.998Z,21.10
2019-05-16T14:03:23.262Z,21.30
2019-05-16T14:05:50.016Z,21.10
2019-05-16T14:08:17.124Z,20.90
2019-05-16T14:10:47.962Z,20.70
2019-05-16T14:13:13.018Z,20.70
2019-05-16T14:15:39.642Z,20.80
2019-05-16T14:18:12.726Z,20.70
2019-05-16T14:20:39.490Z,20.90
2019-05-16T14:23:08.421Z,21.00
2019-05-16T14:25:37.564Z,21.20
2019-05-16T14:28:03.604Z,20.90
2019-05-16T14:30:30.202Z,21.10
2019-05-16T14:33:01.088Z,21.10
2019-05-16T14:35:26.776Z,21.10
2019-05-16T14:37:58.184Z,21.00
2019-05-16T14:40:23.359Z,20.80
2019-05-16T14:42:49.955Z,20.60
2019-05-16T14:45:17.823Z,20.60
2019-05-16T14:47:47.514Z,20.60
2019-05-16T14:50:16.838Z,20.50
2019-05-16T14:52:43.261Z,20.60
2019-05-16T14:55:10.093Z,20.60
2019-05-16T14:57:37.143Z,20.50
2019-05-16T15:00:07.476Z,20.60
2019-05-16T15:02:37.795Z,20.50
2019-05-16T15:05:07.631Z,20.60
2019-05-16T15:07:33.342Z,20.60
2019-05-16T15:10:01.256Z,20.50
2019-05-16T15:12:28.061Z,20.70
2019-05-16T15:14:57.124Z,20.60
2019-05-16T15:17:23.156Z,20.60
2019-05-16T15:19:49.806Z,20.60
2019-05-16T15:22:16.931Z,20.40
2019-05-16T15:24:43.869Z,20.40
2019-05-16T15:27:11.036Z,20.30
2019-05-16T15:29:37.872Z,20.20
2019-05-16T15:32:06.960Z,20.20
2019-05-16T15:34:34.788Z,20.30
2019-05-16T15:37:03.557Z,20.30
2019-05-16T15:39:30.662Z,20.50
2019-05-16T15:41:57.284Z,20.50
2019-05-16T15:44:23.903Z,20.50
2019-05-16T15:46:50.634Z,20.40
2019-05-16T15:49:17.493Z,20.20
2019-05-16T15:51:44.367Z,20.10
2019-05-16T15:54:17.814Z,20.10
2019-05-16T15:56:47.610Z,19.90
2019-05-16T15:59:17.849Z,19.80
2019-05-16T16:01:43.897Z,19.90
2019-05-16T16:04:11.135Z,19.90
2019-05-16T16:06:38.135Z,19.70
2019-05-16T16:09:06.921Z,19.70
2019-05-16T16:11:33.747Z,19.90
2019-05-16T16:14:00.479Z,19.90
2019-05-16T16:16:27.138Z,19.90
2019-05-16T16:18:53.855Z,19.90
2019-05-16T16:21:20.584Z,19.90
2019-05-16T16:23:49.056Z,19.70
2019-05-16T16:26:17.751Z,19.80
2019-05-16T16:28:44.388Z,19.90
2019-05-16T16:31:11.843Z,19.90
2019-05-16T16:33:38.922Z,19.80
2019-05-16T16:36:07.786Z,19.60
2019-05-16T16:38:36.858Z,19.70
2019-05-16T16:41:02.966Z,19.60
2019-05-16T16:43:29.801Z,19.60
2019-05-16T16:46:06.069Z,19.80
2019-05-16T16:48:26.653Z,19.90
2019-05-16T16:50:53.500Z,19.90
2019-05-16T16:53:20.119Z,19.90
2019-05-16T16:55:47.628Z,19.80
2019-05-16T16:58:14.371Z,19.70
2019-05-16T17:00:40.949Z,19.70
2019-05-16T17:03:10.699Z,19.90
2019-05-16T17:05:37.198Z,19.80
2019-05-16T17:08:04.415Z,19.70
2019-05-16T17:10:31.076Z,19.60
2019-05-16T17:12:58.938Z,19.50
2019-05-16T17:15:27.217Z,19.50
2019-05-16T17:17:57.358Z,19.50
2019-05-16T17:20:24.275Z,19.50
2019-05-16T17:22:51.218Z,19.60
2019-05-16T17:25:19.925Z,19.80
2019-05-16T17:27:46.946Z,19.90
2019-05-16T17:30:17.108Z,19.70
2019-05-16T17:32:44.237Z,19.70
2019-05-16T17:35:13.897Z,19.70
2019-05-16T17:37:40.593Z,19.70
2019-05-16T17:40:07.887Z,19.70
2019-05-16T17:42:37.202Z,19.60
2019-05-16T17:45:04.000Z,19.50
2019-05-16T17:47:31.643Z,19.50
2019-05-16T17:49:58.657Z,19.50
2019-05-16T17:52:27.351Z,19.50
2019-05-16T17:54:53.757Z,19.60
2019-05-16T17:57:20.522Z,19.50
2019-05-16T17:59:47.962Z,19.40
2019-05-16T18:02:17.119Z,19.40
2019-05-16T18:04:43.703Z,19.40
2019-05-16T18:07:10.485Z,19.30
2019-05-16T18:09:37.140Z,19.20
2019-05-16T18:12:03.858Z,19.10
2019-05-16T18:14:30.490Z,19.20
2019-05-16T18:17:01.940Z,19.30
2019-05-16T18:19:26.498Z,19.50
2019-05-16T18:21:57.121Z,19.40
2019-05-16T18:24:23.943Z,19.40
2019-05-16T18:26:50.647Z,19.30
2019-05-16T18:29:18.947Z,19.20
2019-05-16T18:31:47.191Z,19.10
2019-05-16T18:34:13.880Z,19.20
2019-05-16T18:36:40.559Z,19.20
2019-05-16T18:39:07.596Z,19.20
2019-05-16T18:41:36.599Z,19.30
2019-05-16T18:44:03.547Z,19.40
2019-05-16T18:46:30.182Z,19.30
2019-05-16T18:49:10.760Z,19.40
2019-05-16T18:51:37.716Z,19.30
2019-05-16T18:54:04.557Z,19.30
2019-05-16T18:56:31.320Z,19.30
2019-05-16T18:58:58.086Z,19.30
2019-05-16T19:01:26.915Z,19.20
2019-05-16T19:03:53.450Z,19.20
2019-05-16T19:06:20.079Z,19.20
2019-05-16T19:08:46.799Z,19.20
2019-05-16T19:11:14.219Z,19.20
2019-05-16T19:13:40.963Z,19.20
2019-05-16T19:16:07.675Z,19.20
2019-05-16T19:18:36.684Z,19.10
2019-05-16T19:21:03.220Z,19.20
2019-05-16T19:23:29.896Z,19.20
2019-05-16T19:25:57.113Z,19.20
2019-05-16T19:28:28.349Z,19.00
2019-05-16T19:30:52.758Z,18.70
2019-05-16T19:33:19.363Z,18.60
2019-05-16T19:35:46.891Z,18.70
2019-05-16T19:38:16.918Z,18.60
2019-05-16T19:40:43.567Z,18.40
2019-05-16T19:43:13.274Z,18.20
2019-05-16T19:45:40.049Z,18.20
2019-05-16T19:48:07.468Z,18.20
2019-05-16T19:50:36.890Z,18.00
2019-05-16T19:53:03.155Z,18.00
2019-05-16T19:55:30.501Z,18.20
2019-05-16T19:57:57.350Z,18.10
2019-05-16T20:00:26.561Z,18.10
2019-05-16T20:02:53.430Z,18.00
2019-05-16T20:05:23.143Z,17.90
2019-05-16T20:07:49.800Z,17.80
2019-05-16T20:10:17.938Z,17.80
2019-05-16T20:12:46.376Z,17.70
2019-05-16T20:15:16.583Z,17.70
2019-05-16T20:17:52.027Z,17.60
2019-05-16T20:20:18.311Z,17.60
2019-05-16T20:22:42.708Z,17.50
2019-05-16T20:25:09.673Z,17.70
2019-05-16T20:27:56.112Z,17.70
2019-05-16T20:30:23.104Z,17.80
2019-05-16T20:32:50.964Z,17.80
2019-05-16T20:35:18.026Z,17.60
2019-05-16T20:37:44.730Z,17.60
2019-05-16T20:40:12.699Z,17.60
2019-05-16T20:42:39.531Z,17.50
2019-05-16T20:45:08.088Z,17.60
2019-05-16T20:47:34.986Z,17.50
2019-05-16T20:50:03.648Z,17.40
2019-05-16T20:52:30.465Z,17.40
2019-05-16T20:54:57.764Z,17.40
2019-05-16T20:57:26.556Z,17.50
2019-05-16T20:59:53.254Z,17.50
2019-05-16T21:02:19.977Z,17.30
2019-05-16T21:04:46.832Z,17.30
2019-05-16T21:07:13.710Z,17.40
2019-05-16T21:09:40.340Z,17.40
2019-05-16T21:12:08.288Z,17.40
2019-05-16T21:14:35.125Z,17.20
2019-05-16T21:17:01.906Z,17.20
2019-05-16T21:19:28.517Z,17.40
2019-05-16T21:21:56.635Z,17.40
2019-05-16T21:24:23.628Z,17.50
2019-05-16T21:26:50.250Z,17.50
2019-05-16T21:29:19.468Z,17.40
2019-05-16T21:31:47.306Z,17.40
2019-05-16T21:34:16.061Z,17.40
2019-05-16T21:36:44.282Z,17.40
2019-05-16T21:39:11.112Z,17.30
2019-05-16T21:41:38.092Z,17.30
2019-05-16T21:44:06.429Z,17.30
2019-05-16T21:46:33.176Z,17.30
2019-05-16T21:48:59.821Z,17.30
2019-05-16T21:51:26.842Z,17.30
2019-05-16T21:53:53.542Z,17.10
2019-05-16T21:56:21.162Z,17.10
2019-05-16T21:58:48.298Z,17.00
2019-05-16T22:01:18.861Z,17.00
2019-05-16T22:03:47.100Z,16.90
2019-05-16T22:06:13.932Z,16.90
2019-05-16T22:08:40.622Z,16.90
2019-05-16T22:11:07.502Z,16.90
2019-05-16T22:13:37.096Z,16.80
2019-05-16T22:16:07.826Z,16.90
2019-05-16T22:18:38.049Z,16.80
2019-05-16T22:21:02.983Z,16.60
2019-05-16T22:23:29.785Z,16.50
2019-05-16T22:25:57.021Z,16.50
2019-05-16T22:28:23.871Z,16.50
2019-05-16T22:30:50.645Z,16.40
2019-05-16T22:33:17.964Z,16.40
2019-05-16T22:35:46.392Z,16.20
2019-05-16T22:38:13.252Z,16.10
2019-05-16T22:40:39.975Z,16.10
2019-05-16T22:43:10.186Z,16.00
2019-05-16T22:45:37.346Z,15.90
2019-05-16T22:48:06.799Z,15.90
2019-05-16T22:50:32.990Z,15.90
2019-05-16T22:52:59.699Z,16.00
2019-05-16T22:55:26.596Z,16.00
2019-05-16T22:57:53.648Z,16.00
2019-05-16T23:00:22.402Z,16.00
2019-05-16T23:02:49.010Z,16.00
2019-05-16T23:05:16.875Z,15.90
2019-05-16T23:07:43.822Z,15.90
2019-05-16T23:10:10.880Z,15.80
2019-05-16T23:12:37.546Z,15.70
2019-05-16T23:15:06.621Z,15.70
2019-05-16T23:17:33.710Z,15.80
2019-05-16T23:20:00.371Z,15.60
2019-05-16T23:22:27.387Z,15.60
2019-05-16T23:24:54.223Z,15.60
2019-05-16T23:27:20.972Z,15.60
2019-05-16T23:29:47.571Z,15.60
2019-05-16T23:32:14.175Z,15.60
2019-05-16T23:34:40.941Z,15.60
2019-05-16T23:37:07.892Z,15.80
2019-05-16T23:39:34.542Z,15.70
2019-05-16T23:42:01.170Z,15.80
2019-05-16T23:44:27.895Z,15.80
2019-05-16T23:46:56.345Z,15.70
2019-05-16T23:49:27.366Z,15.70
2019-05-16T23:51:53.675Z,15.60
2019-05-16T23:54:20.275Z,15.40
2019-05-16T23:56:46.920Z,15.30
2019-05-16T23:59:13.606Z,15.40
